createdAt,value
2022-09-05T00:01:27.580Z,1.77
2022-09-05T00:07:57.997Z,2.20
2022-09-05T00:13:12.494Z,1.80
2022-09-05T00:24:17.634Z,1.73
2022-09-05T00:25:00.919Z,4.33
2022-09-05T00:31:51.164Z,1.67
2022-09-05T00:36:38.927Z,4.40
2022-09-05T00:42:09.766Z,4.38
2022-09-05T00:47:57.480Z,2.03
2022-09-05T00:53:30.859Z,3.50
2022-09-05T00:59:14.570Z,5.93
2022-09-05T01:05:06.529Z,3.13
2022-09-05T01:10:39.311Z,2.13
2022-09-05T01:16:32.254Z,3.40
2022-09-05T01:22:32.720Z,3.20
2022-09-05T01:29:13.055Z,3.60
2022-09-05T01:33:59.665Z,2.65
2022-09-05T01:40:11.365Z,1.40
2022-09-05T01:46:02.145Z,2.22
2022-09-05T01:51:38.162Z,3.17
2022-09-05T01:57:19.641Z,2.38
2022-09-05T02:03:04.926Z,4.43
2022-09-05T02:08:38.492Z,1.75
2022-09-05T02:14:28.588Z,1.88
2022-09-05T02:20:14.634Z,1.98
2022-09-05T02:26:09.570Z,3.03
2022-09-05T02:31:47.019Z,1.57
2022-09-05T02:37:43.845Z,2.10
2022-09-05T02:45:07.133Z,3.70
2022-09-05T02:49:47.284Z,4.10
2022-09-05T02:57:32.960Z,3.38
2022-09-05T03:01:00.704Z,2.53
2022-09-05T03:06:35.595Z,2.53
2022-09-05T03:12:28.693Z,2.40
2022-09-05T03:18:21.113Z,1.80
2022-09-05T03:24:15.074Z,2.92
2022-09-05T03:30:03.974Z,2.20
2022-09-05T03:35:47.609Z,1.80
2022-09-05T03:41:17.661Z,1.88
2022-09-05T03:46:45.158Z,2.10
2022-09-05T03:57:08.275Z,5.93
2022-09-05T03:58:16.950Z,3.17
2022-09-05T04:08:09.120Z,6.45
2022-09-05T04:09:50.620Z,3.58
2022-09-05T04:15:48.652Z,3.60
2022-09-05T04:21:23.589Z,3.10
2022-09-05T04:26:59.451Z,1.95
2022-09-05T04:32:30.579Z,4.00
2022-09-05T04:37:55.086Z,3.15
2022-09-05T04:43:44.968Z,4.68
2022-09-05T04:49:16.429Z,8.35
2022-09-05T04:54:56.252Z,3.75
2022-09-05T05:06:01.881Z,3.55
2022-09-05T05:06:43.990Z,2.45
2022-09-05T05:17:54.428Z,4.25
2022-09-05T05:18:38.619Z,3.95
2022-09-05T05:24:21.800Z,4.45
2022-09-05T05:29:43.904Z,4.30
2022-09-05T05:35:20.532Z,4.97
2022-09-05T05:41:04.729Z,3.90
2022-09-05T05:46:31.201Z,11.45
2022-09-05T05:52:29.910Z,5.18
2022-09-05T05:58:15.996Z,7.53
2022-09-05T06:03:56.113Z,9.32
2022-09-05T06:14:51.435Z,10.85
2022-09-05T06:15:43.497Z,7.47
2022-09-05T06:22:11.513Z,3.20
2022-09-05T06:28:08.731Z,6.80
2022-09-05T06:34:03.265Z,5.28
2022-09-05T06:39:37.681Z,7.70
2022-09-05T06:45:27.707Z,2.92
2022-09-05T06:51:07.750Z,3.10
2022-09-05T06:57:04.459Z,2.92
2022-09-05T07:02:58.109Z,3.33
2022-09-05T07:08:49.044Z,6.55
2022-09-05T07:14:25.469Z,1.67
2022-09-05T07:19:54.843Z,3.40
2022-09-05T07:25:26.444Z,3.72
2022-09-05T07:31:09.840Z,2.22
2022-09-05T07:36:36.265Z,1.93
2022-09-05T07:42:04.373Z,2.25
2022-09-05T07:47:32.306Z,1.65
2022-09-05T07:56:46.723Z,3.30
2022-09-05T07:58:43.253Z,3.90
2022-09-05T08:04:05.435Z,1.98
2022-09-05T08:10:09.315Z,1.58
2022-09-05T08:15:20.220Z,2.83
2022-09-05T08:20:56.066Z,1.93
2022-09-05T08:26:35.700Z,2.03
2022-09-05T08:32:00.583Z,0.82
2022-09-05T08:37:26.120Z,0.88
2022-09-05T08:45:27.060Z,1.48
2022-09-05T08:49:36.863Z,1.30
2022-09-05T08:55:58.110Z,0.63
2022-09-05T09:01:44.538Z,1.35
2022-09-05T09:07:47.309Z,2.92
2022-09-05T09:13:28.240Z,0.82
2022-09-05T09:18:50.106Z,0.93
2022-09-05T09:24:22.360Z,0.95
2022-09-05T09:29:44.437Z,2.05
2022-09-05T09:35:20.968Z,0.98
2022-09-05T09:41:13.600Z,0.50
2022-09-05T09:46:44.635Z,0.95
2022-09-05T09:52:49.113Z,2.00
2022-09-05T09:58:23.259Z,1.00
2022-09-05T10:10:32.738Z,1.95
2022-09-05T10:10:53.342Z,0.90
2022-09-05T10:16:23.217Z,2.28
2022-09-05T10:22:35.381Z,1.77
2022-09-05T10:28:07.836Z,1.80
2022-09-05T10:35:14.791Z,2.60
2022-09-05T10:39:21.135Z,1.90
2022-09-05T10:44:48.221Z,2.33
2022-09-05T10:50:27.773Z,2.35
2022-09-05T10:55:52.574Z,1.65
2022-09-05T11:02:26.570Z,2.90
2022-09-05T11:07:30.492Z,1.65
2022-09-05T11:13:30.019Z,1.92
2022-09-05T11:19:06.220Z,1.48
2022-09-05T11:24:33.730Z,1.75
2022-09-05T11:30:30.355Z,2.85
2022-09-05T11:40:04.818Z,2.13
2022-09-05T11:42:02.498Z,1.25
2022-09-05T11:47:59.670Z,0.80
2022-09-05T11:53:43.292Z,2.40
2022-09-05T11:59:38.000Z,1.02
2022-09-05T12:05:49.440Z,1.40
2022-09-05T12:11:43.290Z,1.70
2022-09-05T12:17:10.307Z,1.10
2022-09-05T12:22:52.434Z,2.92
2022-09-05T12:29:27.514Z,3.13
2022-09-05T12:36:05.482Z,1.48
2022-09-05T12:41:32.566Z,2.58
2022-09-05T12:45:50.313Z,1.90
2022-09-05T12:51:46.471Z,4.10
2022-09-05T13:01:25.783Z,1.98
2022-09-05T13:03:27.782Z,3.00
2022-09-05T13:08:59.189Z,2.30
2022-09-05T13:14:53.766Z,2.07
2022-09-05T13:20:28.424Z,4.05
2022-09-05T13:25:58.619Z,1.60
2022-09-05T13:37:53.838Z,2.88
2022-09-05T13:38:30.571Z,1.42
2022-09-05T13:43:16.087Z,0.70
2022-09-05T13:54:51.315Z,2.47
2022-09-05T14:00:27.860Z,1.05
2022-09-05T14:06:45.079Z,2.15
2022-09-05T14:12:24.056Z,5.72
2022-09-05T14:17:58.389Z,1.80
2022-09-05T14:23:25.887Z,1.58
2022-09-05T14:29:14.377Z,3.00
2022-09-05T14:37:51.596Z,4.75
2022-09-05T14:41:11.033Z,3.72
2022-09-05T14:46:41.843Z,2.72
2022-09-05T14:52:35.525Z,2.83
2022-09-05T15:02:38.170Z,1.48
2022-09-05T15:12:16.180Z,2.40
2022-09-05T15:15:25.153Z,4.13
2022-09-05T15:20:50.737Z,1.27
2022-09-05T15:26:26.805Z,3.50
2022-09-05T15:31:53.239Z,2.55
2022-09-05T15:37:36.110Z,1.05
2022-09-05T15:43:01.079Z,1.55
2022-09-05T15:48:26.076Z,3.88
2022-09-05T15:53:51.895Z,1.58
2022-09-05T15:59:14.747Z,3.42
2022-09-05T16:08:15.349Z,0.60
2022-09-05T16:10:38.521Z,7.90
2022-09-05T16:22:54.852Z,3.58
2022-09-05T16:23:34.733Z,3.75
2022-09-05T16:27:51.348Z,2.88
2022-09-05T16:33:23.812Z,2.13
2022-09-05T16:39:03.196Z,3.40
2022-09-05T16:44:46.145Z,2.33
2022-09-05T16:50:24.620Z,3.75
2022-09-05T16:56:07.916Z,6.07
2022-09-05T17:01:36.973Z,4.78
2022-09-05T17:07:19.022Z,7.10
2022-09-05T17:12:42.158Z,7.90
2022-09-05T17:18:24.164Z,6.60
2022-09-05T17:28:05.212Z,4.95
2022-09-05T17:36:00.038Z,4.82
2022-09-05T17:41:41.700Z,6.95
2022-09-05T17:47:27.486Z,3.50
2022-09-05T17:53:26.844Z,7.82
2022-09-05T17:59:04.393Z,12.52
2022-09-05T18:04:46.512Z,11.95
2022-09-05T18:10:15.349Z,8.82
2022-09-05T18:15:51.883Z,10.15
2022-09-05T18:21:22.320Z,6.15
2022-09-05T18:33:54.043Z,6.65
2022-09-05T18:38:50.955Z,10.05
2022-09-05T18:44:20.448Z,9.38
2022-09-05T18:50:25.215Z,10.75
2022-09-05T18:56:12.288Z,6.78
2022-09-05T19:01:35.147Z,8.73
2022-09-05T19:06:59.333Z,10.50
2022-09-05T19:12:33.861Z,6.38
2022-09-05T19:18:26.199Z,6.85
2022-09-05T19:23:53.397Z,6.95
2022-09-05T19:37:02.462Z,4.25
2022-09-05T19:47:23.548Z,5.10
2022-09-05T19:47:34.074Z,6.35
2022-09-05T19:52:17.155Z,5.45
2022-09-05T19:57:39.018Z,7.80
2022-09-05T20:03:01.558Z,6.47
2022-09-05T20:08:34.639Z,8.23
2022-09-05T20:14:19.829Z,5.22
2022-09-05T20:19:41.628Z,4.60
2022-09-05T20:25:34.772Z,5.90
2022-09-05T20:30:59.678Z,6.60
2022-09-05T20:43:12.495Z,6.82
2022-09-05T20:43:15.641Z,4.50
2022-09-05T20:54:04.803Z,8.90
2022-09-05T20:54:28.652Z,5.03
2022-09-05T20:59:37.752Z,6.47
2022-09-05T21:05:20.241Z,3.85
2022-09-05T21:10:55.870Z,5.18
2022-09-05T21:16:22.059Z,6.05
2022-09-05T21:21:43.916Z,7.77
2022-09-05T21:27:21.469Z,6.18
2022-09-05T21:32:43.467Z,4.57
2022-09-05T21:38:05.323Z,7.63
2022-09-05T21:47:33.785Z,5.95
2022-09-05T21:49:10.522Z,7.97
2022-09-05T21:59:19.003Z,4.22
2022-09-05T22:00:15.283Z,4.55
2022-09-05T22:05:37.573Z,4.40
2022-09-05T22:10:59.396Z,5.25
2022-09-05T22:16:21.487Z,5.07
2022-09-05T22:21:43.580Z,5.45
2022-09-05T22:27:11.084Z,4.05
2022-09-05T22:32:35.525Z,4.60
2022-09-05T22:38:10.239Z,6.88
2022-09-05T22:43:32.352Z,4.68
2022-09-05T22:48:54.203Z,6.57
2022-09-05T22:54:16.014Z,5.15
2022-09-05T22:59:37.824Z,5.20
2022-09-05T23:04:59.648Z,3.55
2022-09-05T23:10:21.456Z,5.00
2022-09-05T23:15:43.301Z,5.80
2022-09-05T23:21:07.819Z,3.35
2022-09-05T23:26:30.111Z,4.78
2022-09-05T23:31:51.962Z,6.30
2022-09-05T23:37:13.776Z,3.08
2022-09-05T23:42:35.598Z,4.05
2022-09-05T23:47:58.634Z,4.63
2022-09-05T23:53:20.983Z,6.97
2022-09-05T23:58:42.808Z,9.35
